Saint Marys, Pennsylvania
Current Conditions -  °F | °C
As of 2:53 AM on Saturday 25 Oct 2014 (Local Time) from KDUJ Reporting Station
Overcast Overcast  
Wind Chill: 43°   Ceiling: 4500
Heat Index: 45°   Visibility: 10mi
Dew Point: 38°   Wind: 5mph
Humidity: 76%   Direction: 230°SW
Pressure: 29.95"   Gusts: NA
Location:  41.43°N, 78.56°W
Report Text: KDUJ 250653Z AUTO 23004KT 10SM OVC045 07/03 A2995 RMK AO2 SLP145 T00720033
Loading
Personal Weather Stations






























Interactive Weather Map New forecast layout! Learn more

10-Day Weather Forecast

Advertisements
Track Severe Weather on mobile